Time;durP1;ratioP1;P1;durP2;ratioP2;P2;SDS_P1;SDS_P2;PMS_P1;PMS_P2;Temp;Humidity;BMP_temperature;BMP_pressure;BME280_temperature;BME280_humidity;BME280_pressure;Samples;Min_cycle;Max_cycle;Signal;HPM_P1;HPM_P2
2022/05/02 00:00:57;;;;;;;18.17;12.63;;;;;;;;;;5087633;28;20047;-60
2022/05/02 00:03:23;;;;;;;17.27;11.20;;;;;;;;;;5087387;28;20048;-60
2022/05/02 00:05:49;;;;;;;16.63;12.00;;;;;;;;;;5087593;28;20048;-61
2022/05/02 00:08:15;;;;;;;18.27;12.57;;;;;;;;;;5087433;28;20519;-61
2022/05/02 00:10:41;;;;;;;16.70;11.93;;;;;;;;;;5087383;28;20101;-61
2022/05/02 00:13:09;;;;;;;14.55;10.95;;;;;;;;;;5087405;28;20048;-61
2022/05/02 00:15:35;;;;;;;;;;;;;;;;;;5087784;28;20046;-61
2022/05/02 00:18:01;;;;;;;18.42;12.90;;;;;;;;;;5087396;28;19965;-61
2022/05/02 00:20:27;;;;;;;15.25;12.82;;;;;;;;;;5087421;28;20047;-61
2022/05/02 00:22:54;;;;;;;17.00;13.05;;;;;;;;;;5087302;28;20481;-61
2022/05/02 00:25:20;;;;;;;21.40;13.80;;;;;;;;;;5086118;28;20055;-61
2022/05/02 00:27:47;;;;;;;21.08;14.13;;;;;;;;;;5087166;28;20048;-61
2022/05/02 00:30:13;;;;;;;20.02;13.77;;;;;;;;;;5087094;28;20044;-61
2022/05/02 00:32:40;;;;;;;18.23;13.48;;;;;;;;;;5086986;28;20052;-61
2022/05/02 00:35:07;;;;;;;21.92;13.20;;;;;;;;;;5086986;28;20041;-61
2022/05/02 00:37:33;;;;;;;18.80;13.17;;;;;;;;;;5087083;28;20052;-61
2022/05/02 00:40:00;;;;;;;23.20;12.68;;;;;;;;;;5076183;28;20295;-60
2022/05/02 00:42:26;;;;;;;19.15;13.80;;;;;;;;;;5066610;28;20053;-60
2022/05/02 00:44:52;;;;;;;19.98;12.85;;;;;;;;;;5066751;28;20053;-60
2022/05/02 00:47:20;;;;;;;19.52;14.70;;;;;;;;;;5066520;28;20041;-60
2022/05/02 00:49:47;;;;;;;20.17;14.85;;;;;;;;;;5066720;28;20098;-61
2022/05/02 00:52:13;;;;;;;20.30;16.00;;;;;;;;;;5066111;28;20056;-61
2022/05/02 00:54:39;;;;;;;19.00;14.23;;;;;;;;;;5066543;28;20049;-61
2022/05/02 00:57:09;;;;;;;22.40;13.88;;;;;;;;;;5066434;28;20052;-60
2022/05/02 00:59:37;;;;;;;19.15;14.43;;;;;;;;;;5066525;28;20044;-60
2022/05/02 01:02:04;;;;;;;16.50;14.45;;;;;;;;;;5066100;28;20052;-61
2022/05/02 01:04:30;;;;;;;29.88;16.23;;;;;;;;;;5066402;28;20041;-62
2022/05/02 01:07:08;;;;;;;20.60;15.10;;;;;;;;;;5066455;28;20080;-60
2022/05/02 01:09:38;;;;;;;21.83;15.88;;;;;;;;;;5066288;28;20052;-61
2022/05/02 01:12:04;;;;;;;23.38;16.17;;;;;;;;;;5066349;28;20048;-61
2022/05/02 01:14:33;;;;;;;21.33;15.23;;;;;;;;;;5066329;28;20048;-60
2022/05/02 01:17:00;;;;;;;23.40;16.63;;;;;;;;;;5066027;28;20049;-60
2022/05/02 01:19:26;;;;;;;24.00;16.63;;;;;;;;;;5065979;28;20566;-61
2022/05/02 01:21:52;;;;;;;25.98;16.55;;;;;;;;;;5065981;28;20056;-61
2022/05/02 01:24:18;;;;;;;23.45;16.42;;;;;;;;;;5066278;28;20052;-61
2022/05/02 01:26:44;;;;;;;28.27;17.52;;;;;;;;;;5066097;28;20047;-61
2022/05/02 01:29:10;;;;;;;25.73;18.23;;;;;;;;;;5066099;28;20446;-61
2022/05/02 01:31:36;;;;;;;29.23;18.63;;;;;;;;;;5065825;28;20041;-61
2022/05/02 01:34:02;;;;;;;25.05;18.42;;;;;;;;;;5065732;28;20520;-60
2022/05/02 01:36:28;;;;;;;22.63;17.60;;;;;;;;;;5065821;28;20120;-61
2022/05/02 01:38:55;;;;;;;28.15;18.83;;;;;;;;;;5065765;28;20060;-60
2022/05/02 01:41:21;;;;;;;28.38;18.42;;;;;;;;;;5065430;28;20048;-60
2022/05/02 01:43:48;;;;;;;23.90;17.40;;;;;;;;;;5065532;28;20053;-60
2022/05/02 01:46:14;;;;;;;26.58;18.15;;;;;;;;;;5065470;28;20080;-61
2022/05/02 01:48:41;;;;;;;26.75;19.55;;;;;;;;;;5065589;28;20041;-60
2022/05/02 01:51:07;;;;;;;24.27;18.85;;;;;;;;;;5065519;28;20043;-60
2022/05/02 01:53:33;;;;;;;33.25;20.60;;;;;;;;;;5065787;28;20049;-61
2022/05/02 01:55:59;;;;;;;29.45;21.65;;;;;;;;;;5065492;28;20041;-60
2022/05/02 01:58:25;;;;;;;33.78;20.60;;;;;;;;;;5065474;28;20041;-60
2022/05/02 02:00:51;;;;;;;41.55;20.95;;;;;;;;;;5064280;28;20123;-61
2022/05/02 02:03:17;;;;;;;25.75;19.88;;;;;;;;;;5064211;28;20090;-61
2022/05/02 02:05:49;;;;;;;33.83;19.02;;;;;;;;;;5065210;28;20055;-61
2022/05/02 02:08:26;;;;;;;31.20;19.52;;;;;;;;;;5065387;28;20037;-60
2022/05/02 02:10:56;;;;;;;24.20;19.45;;;;;;;;;;5065169;28;20047;-60
2022/05/02 02:13:22;;;;;;;28.40;20.38;;;;;;;;;;5065216;28;20072;-60
2022/05/02 02:15:48;;;;;;;29.83;19.77;;;;;;;;;;5065028;28;20087;-61
2022/05/02 02:18:15;;;;;;;29.85;21.55;;;;;;;;;;5065031;28;20056;-61
2022/05/02 02:20:44;;;;;;;31.38;21.75;;;;;;;;;;5065034;28;20057;-61
2022/05/02 02:23:11;;;;;;;38.05;24.88;;;;;;;;;;5064833;28;20053;-60
2022/05/02 02:25:38;;;;;;;37.05;25.92;;;;;;;;;;5065081;28;20069;-60
2022/05/02 02:28:04;;;;;;;46.25;28.02;;;;;;;;;;5064960;28;20071;-60
2022/05/02 02:30:30;;;;;;;40.13;25.48;;;;;;;;;;5064769;28;20068;-60
2022/05/02 02:33:00;;;;;;;46.92;27.55;;;;;;;;;;5064587;28;20049;-60
2022/05/02 02:35:26;;;;;;;45.15;29.30;;;;;;;;;;5064886;28;20037;-60
2022/05/02 02:37:52;;;;;;;44.85;29.38;;;;;;;;;;5064856;28;20121;-61
2022/05/02 02:40:19;;;;;;;47.45;26.98;;;;;;;;;;5064726;28;20045;-61
2022/05/02 02:42:45;;;;;;;47.85;29.05;;;;;;;;;;5064506;28;20061;-61
2022/05/02 02:45:11;;;;;;;45.60;28.73;;;;;;;;;;5064576;28;20068;-60
2022/05/02 02:47:37;;;;;;;48.47;27.92;;;;;;;;;;5064527;28;20041;-61
2022/05/02 02:50:04;;;;;;;50.28;31.00;;;;;;;;;;5064476;28;20085;-60
2022/05/02 02:52:30;;;;;;;52.17;31.15;;;;;;;;;;5064600;28;20051;-60
2022/05/02 02:54:56;;;;;;;44.45;27.90;;;;;;;;;;5064295;28;20614;-61
2022/05/02 02:57:22;;;;;;;39.67;25.98;;;;;;;;;;5064530;28;20094;-60
2022/05/02 02:59:49;;;;;;;34.33;24.05;;;;;;;;;;5064670;28;20120;-60
2022/05/02 03:02:15;;;;;;;38.22;24.45;;;;;;;;;;5062816;28;20056;-59
2022/05/02 03:07:26;;;;;;;37.45;24.48;;;;;;;;;;5064635;28;20060;-60
2022/05/02 03:09:53;;;;;;;33.83;24.52;;;;;;;;;;5064520;28;20087;-60
2022/05/02 03:12:19;;;;;;;38.90;25.38;;;;;;;;;;5064454;28;20059;-60
2022/05/02 03:14:46;;;;;;;40.58;26.13;;;;;;;;;;5067015;28;20052;-60
2022/05/02 03:17:12;;;;;;;45.22;24.80;;;;;;;;;;5068186;28;20052;-60
2022/05/02 03:19:39;;;;;;;33.78;23.45;;;;;;;;;;5068464;28;20045;-60
2022/05/02 03:22:05;;;;;;;31.90;23.40;;;;;;;;;;5068182;28;20044;-60
2022/05/02 03:24:31;;;;;;;41.50;27.20;;;;;;;;;;5068235;28;20052;-60
2022/05/02 03:26:57;;;;;;;46.90;26.73;;;;;;;;;;5066976;28;20411;-60
2022/05/02 03:29:23;;;;;;;49.08;28.77;;;;;;;;;;5068438;28;20053;-60
2022/05/02 03:31:50;;;;;;;38.40;25.02;;;;;;;;;;5068187;28;20045;-60
2022/05/02 03:34:16;;;;;;;35.60;23.02;;;;;;;;;;5067847;28;20045;-60
2022/05/02 03:36:43;;;;;;;39.47;23.88;;;;;;;;;;5068159;28;20049;-60
2022/05/02 03:39:10;;;;;;;32.97;23.23;;;;;;;;;;5067905;28;20101;-61
2022/05/02 03:41:36;;;;;;;33.47;23.17;;;;;;;;;;5067715;28;20053;-60
2022/05/02 03:44:02;;;;;;;39.97;22.67;;;;;;;;;;5068087;28;20053;-60
2022/05/02 03:46:28;;;;;;;37.45;23.80;;;;;;;;;;5067720;28;20441;-60
2022/05/02 03:48:54;;;;;;;43.70;25.38;;;;;;;;;;5067911;28;20052;-60
2022/05/02 03:51:20;;;;;;;52.70;27.17;;;;;;;;;;5067719;28;20115;-60
2022/05/02 03:53:46;;;;;;;50.83;29.25;;;;;;;;;;5067824;28;20037;-60
2022/05/02 03:56:13;;;;;;;53.20;30.67;;;;;;;;;;5067807;28;20094;-60
2022/05/02 03:58:39;;;;;;;52.15;29.42;;;;;;;;;;5067375;28;20097;-59
2022/05/02 04:01:05;;;;;;;50.03;30.83;;;;;;;;;;5066188;28;20045;-59
2022/05/02 04:03:31;;;;;;;42.97;27.00;;;;;;;;;;5067556;28;20060;-61
2022/05/02 04:05:57;;;;;;;44.00;26.60;;;;;;;;;;5067608;28;20044;-60
2022/05/02 04:08:23;;;;;;;40.33;24.25;;;;;;;;;;5067477;28;20045;-60
2022/05/02 04:10:50;;;;;;;40.65;23.05;;;;;;;;;;5067590;28;20100;-60
2022/05/02 04:13:16;;;;;;;44.67;26.42;;;;;;;;;;5067390;28;20412;-62
2022/05/02 04:15:42;;;;;;;42.55;26.30;;;;;;;;;;5067405;28;20045;-60
2022/05/02 04:18:08;;;;;;;42.58;25.80;;;;;;;;;;5067071;28;20059;-60
2022/05/02 04:20:35;;;;;;;47.30;25.00;;;;;;;;;;5067198;28;20057;-60
2022/05/02 04:23:01;;;;;;;39.50;22.15;;;;;;;;;;5067186;28;20049;-60
2022/05/02 04:25:27;;;;;;;31.75;19.35;;;;;;;;;;5066365;28;20045;-61
2022/05/02 04:27:53;;;;;;;24.35;15.85;;;;;;;;;;5067071;28;20101;-60
2022/05/02 04:30:19;;;;;;;13.88;11.07;;;;;;;;;;5066827;28;20055;-61
2022/05/02 04:32:45;;;;;;;22.35;10.75;;;;;;;;;;5067041;28;20052;-60
2022/05/02 04:35:11;;;;;;;24.60;10.65;;;;;;;;;;5066791;28;20511;-60
2022/05/02 04:37:38;;;;;;;14.07;11.07;;;;;;;;;;5067009;28;20081;-60
2022/05/02 04:40:04;;;;;;;15.85;11.43;;;;;;;;;;5067074;28;20082;-61
2022/05/02 04:42:31;;;;;;;22.33;13.13;;;;;;;;;;5065027;28;20413;-61
2022/05/02 04:44:57;;;;;;;22.08;13.43;;;;;;;;;;5066837;28;20097;-61
2022/05/02 04:47:23;;;;;;;21.20;14.27;;;;;;;;;;5066724;28;20053;-60
2022/05/02 04:49:49;;;;;;;28.10;15.55;;;;;;;;;;5066637;28;20083;-61
2022/05/02 04:52:15;;;;;;;21.10;13.93;;;;;;;;;;5066832;28;20041;-60
2022/05/02 04:54:41;;;;;;;25.17;13.43;;;;;;;;;;5066725;28;20041;-60
2022/05/02 04:57:07;;;;;;;19.80;13.05;;;;;;;;;;5066616;28;20047;-60
2022/05/02 04:59:33;;;;;;;21.65;14.60;;;;;;;;;;5066622;28;20116;-60
2022/05/02 05:01:59;;;;;;;31.63;18.60;;;;;;;;;;5066463;28;20044;-61
2022/05/02 05:04:26;;;;;;;23.60;16.00;;;;;;;;;;5066168;28;20048;-61
2022/05/02 05:06:52;;;;;;;24.10;15.85;;;;;;;;;;5065357;28;20059;-60
2022/05/02 05:09:18;;;;;;;22.70;15.35;;;;;;;;;;5065244;28;20052;-61
2022/05/02 05:12:01;;;;;;;20.77;15.63;;;;;;;;;;5066527;28;20102;-60
2022/05/02 05:17:24;;;;;;;32.83;17.48;;;;;;;;;;5066133;28;20459;-60
2022/05/02 05:20:13;;;;;;;35.08;19.95;;;;;;;;;;5064943;28;20108;-60
2022/05/02 05:22:39;;;;;;;31.50;21.00;;;;;;;;;;5066031;28;20053;-60
2022/05/02 05:25:24;;;;;;;25.83;18.10;;;;;;;;;;5066199;28;20076;-60
2022/05/02 05:27:58;;;;;;;28.48;18.33;;;;;;;;;;5065844;28;20132;-60
2022/05/02 05:30:27;;;;;;;27.63;18.65;;;;;;;;;;5065842;28;20056;-61
2022/05/02 05:32:53;;;;;;;32.45;22.08;;;;;;;;;;5067088;28;20226;-61
2022/05/02 05:35:23;;;;;;;26.13;18.00;;;;;;;;;;5083504;28;20048;-60
2022/05/02 05:38:03;;;;;;;32.17;19.52;;;;;;;;;;5085882;28;20119;-61
2022/05/02 05:40:29;;;;;;;24.42;16.35;;;;;;;;;;5085910;28;20100;-60
2022/05/02 05:43:14;;;;;;;26.15;18.00;;;;;;;;;;5083999;28;20382;-61
2022/05/02 05:45:45;;;;;;;26.80;18.70;;;;;;;;;;5085631;28;20048;-60
2022/05/02 05:48:30;;;;;;;27.77;19.00;;;;;;;;;;5084405;28;20539;-61
2022/05/02 05:51:16;;;;;;;25.58;16.90;;;;;;;;;;5084146;28;20056;-61
2022/05/02 05:53:52;;;;;;;24.65;17.95;;;;;;;;;;5081283;28;20048;-61
2022/05/02 05:56:27;;;;;;;19.92;14.98;;;;;;;;;;5084203;28;20051;-60
2022/05/02 05:59:08;;;;;;;20.98;15.20;;;;;;;;;;5085254;28;20187;-61
2022/05/02 06:01:34;;;;;;;24.30;15.30;;;;;;;;;;5085177;28;20052;-61
2022/05/02 06:04:04;;;;;;;20.17;14.63;;;;;;;;;;5085096;28;20048;-60
2022/05/02 06:06:31;;;;;;;18.98;13.00;;;;;;;;;;5085184;28;20048;-60
2022/05/02 06:09:01;;;;;;;22.27;14.93;;;;;;;;;;5083903;28;20074;-60
2022/05/02 06:11:28;;;;;;;21.65;14.50;;;;;;;;;;5085202;28;20040;-59
2022/05/02 06:13:56;;;;;;;21.30;12.93;;;;;;;;;;5083810;28;20060;-61
2022/05/02 06:19:22;;;;;;;17.08;12.80;;;;;;;;;;5084972;28;20084;-61
2022/05/02 06:21:48;;;;;;;;;;;;;;;;;;5082825;28;20052;-61
2022/05/02 06:24:15;;;;;;;17.70;12.45;;;;;;;;;;5084255;28;19931;-62
2022/05/02 06:26:43;;;;;;;26.90;19.00;;;;;;;;;;5064896;28;20041;-60
2022/05/02 06:29:09;;;;;;;23.30;16.25;;;;;;;;;;5071484;28;20133;-61
2022/05/02 06:31:36;;;;;;;20.65;15.40;;;;;;;;;;5084487;28;20044;-61
2022/05/02 06:34:03;;;;;;;18.08;12.90;;;;;;;;;;5084565;28;20037;-61
2022/05/02 06:36:32;;;;;;;22.88;14.20;;;;;;;;;;5084390;28;20106;-61
2022/05/02 06:39:15;;;;;;;17.58;13.18;;;;;;;;;;5084503;28;20045;-62
2022/05/02 06:41:59;;;;;;;18.70;16.70;;;;;;;;;;5082472;28;20048;-61
2022/05/02 06:44:27;;;;;;;29.20;22.85;;;;;;;;;;5084292;28;20065;-63
2022/05/02 06:47:00;;;;;;;29.40;25.27;;;;;;;;;;5083917;28;20048;-61
2022/05/02 06:49:26;;;;;;;30.50;23.52;;;;;;;;;;5083294;28;20040;-61
2022/05/02 06:51:55;;;;;;;28.45;25.15;;;;;;;;;;5084545;28;20050;-61
2022/05/02 06:54:27;;;;;;;30.67;26.30;;;;;;;;;;5084434;28;20119;-61
2022/05/02 06:57:03;;;;;;;33.50;29.85;;;;;;;;;;5084731;28;20040;-61
2022/05/02 06:59:37;;;;;;;46.67;40.80;;;;;;;;;;5084501;28;20072;-62
2022/05/02 07:02:09;;;;;;;40.38;36.05;;;;;;;;;;5084270;28;20054;-62
2022/05/02 07:04:42;;;;;;;32.55;28.92;;;;;;;;;;5084510;28;20047;-61
2022/05/02 07:07:11;;;;;;;34.45;24.85;;;;;;;;;;5082452;28;20049;-62
2022/05/02 07:09:47;;;;;;;17.45;14.93;;;;;;;;;;5084439;28;20044;-61
2022/05/02 07:12:24;;;;;;;12.63;10.77;;;;;;;;;;5084365;28;20040;-62
2022/05/02 07:14:53;;;;;;;9.13;7.60;;;;;;;;;;5083633;28;20055;-60
2022/05/02 07:17:27;;;;;;;10.20;6.43;;;;;;;;;;5083487;28;20045;-63
2022/05/02 07:20:03;;;;;;;28.33;6.95;;;;;;;;;;5082332;28;20104;-63
2022/05/02 07:22:33;;;;;;;7.78;5.15;;;;;;;;;;5083938;28;20123;-61
2022/05/02 07:24:59;;;;;;;8.45;5.22;;;;;;;;;;5084488;28;20382;-61
2022/05/02 07:27:28;;;;;;;6.00;5.25;;;;;;;;;;5084356;28;20043;-62
2022/05/02 07:29:57;;;;;;;6.70;4.35;;;;;;;;;;5083991;28;20060;-61
2022/05/02 07:32:24;;;;;;;36.97;7.47;;;;;;;;;;5084085;28;20143;-61
2022/05/02 07:34:52;;;;;;;8.90;4.60;;;;;;;;;;5082186;28;20080;-61
2022/05/02 07:37:21;;;;;;;11.05;5.60;;;;;;;;;;5080637;28;20040;-61
2022/05/02 07:39:48;;;;;;;10.40;5.18;;;;;;;;;;5082768;28;20087;-61
2022/05/02 07:42:15;;;;;;;6.15;4.35;;;;;;;;;;5083034;28;20037;-62
2022/05/02 07:44:43;;;;;;;18.30;5.20;;;;;;;;;;5077831;28;20075;-61
2022/05/02 07:47:11;;;;;;;4.90;4.30;;;;;;;;;;5083855;28;20055;-61
2022/05/02 07:49:39;;;;;;;7.90;4.15;;;;;;;;;;5083926;28;20072;-61
2022/05/02 07:52:06;;;;;;;8.50;4.15;;;;;;;;;;5084057;28;20052;-61
2022/05/02 07:54:37;;;;;;;7.47;4.47;;;;;;;;;;5082199;28;20066;-61
2022/05/02 07:57:05;;;;;;;10.35;4.55;;;;;;;;;;5081936;28;20563;-61
2022/05/02 07:59:34;;;;;;;9.40;4.93;;;;;;;;;;5083435;28;20044;-61
2022/05/02 08:02:00;;;;;;;6.30;5.20;;;;;;;;;;5085175;28;20040;-61
2022/05/02 08:04:26;;;;;;;8.60;4.32;;;;;;;;;;5087145;28;20060;-62
2022/05/02 08:07:14;;;;;;;13.30;4.88;;;;;;;;;;5086783;28;20049;-61
2022/05/02 08:09:43;;;;;;;5.97;4.53;;;;;;;;;;5073049;28;20049;-61
2022/05/02 08:12:15;;;;;;;7.65;5.10;;;;;;;;;;5087482;28;20092;-62
2022/05/02 08:14:44;;;;;;;6.82;4.93;;;;;;;;;;5087355;28;20143;-63
2022/05/02 08:17:23;;;;;;;11.45;5.10;;;;;;;;;;5086217;28;20045;-61
2022/05/02 08:19:49;;;;;;;6.53;5.07;;;;;;;;;;5069664;28;20049;-63
2022/05/02 08:28:15;;;;;;;8.85;5.30;;;;;;;;;;5073119;28;20047;-64
2022/05/02 08:30:52;;;;;;;8.02;4.53;;;;;;;;;;5086545;28;20087;-60
2022/05/02 08:33:25;;;;;;;9.00;5.25;;;;;;;;;;5086788;28;20036;-64
2022/05/02 08:35:59;;;;;;;8.38;4.60;;;;;;;;;;5087112;28;20045;-64
2022/05/02 08:38:32;;;;;;;8.73;5.15;;;;;;;;;;5086713;28;20075;-62
2022/05/02 08:41:01;;;;;;;9.25;5.47;;;;;;;;;;5087029;28;20119;-60
2022/05/02 08:43:46;;;;;;;7.57;5.43;;;;;;;;;;5086493;28;20503;-60
2022/05/02 08:46:32;;;;;;;7.18;5.43;;;;;;;;;;5086757;28;20059;-60
2022/05/02 08:52:02;;;;;;;6.95;5.65;;;;;;;;;;5087073;28;20082;-59
2022/05/02 08:54:40;;;;;;;7.38;5.28;;;;;;;;;;5086262;28;20036;-60
2022/05/02 08:57:09;;;;;;;7.53;5.07;;;;;;;;;;5086871;28;20045;-60
2022/05/02 08:59:47;;;;;;;10.75;6.43;;;;;;;;;;5086612;28;20462;-62
2022/05/02 09:02:13;;;;;;;8.23;5.32;;;;;;;;;;5085123;28;20552;-59
2022/05/02 09:04:42;;;;;;;7.72;5.35;;;;;;;;;;5084302;28;20076;-60
2022/05/02 09:07:12;;;;;;;9.77;6.47;;;;;;;;;;5086238;28;20063;-59
2022/05/02 09:09:41;;;;;;;7.78;5.50;;;;;;;;;;5084955;28;20140;-61
2022/05/02 09:12:10;;;;;;;8.57;5.60;;;;;;;;;;5085287;28;20088;-62
2022/05/02 09:15:02;;;;;;;16.05;6.03;;;;;;;;;;5067025;28;20037;-68
2022/05/02 09:17:48;;;;;;;8.57;5.57;;;;;;;;;;5065570;28;20067;-66
2022/05/02 09:20:26;;;;;;;7.75;5.53;;;;;;;;;;5066074;28;20108;-65
2022/05/02 09:23:11;;;;;;;7.40;5.57;;;;;;;;;;5079023;28;20048;-63
2022/05/02 09:25:57;;;;;;;13.30;5.20;;;;;;;;;;5084214;28;20052;-62
2022/05/02 09:28:24;;;;;;;6.10;5.13;;;;;;;;;;5085415;28;20052;-64
2022/05/02 09:31:23;;;;;;;7.45;5.28;;;;;;;;;;5085553;28;20102;-64
2022/05/02 09:34:07;;;;;;;8.82;5.43;;;;;;;;;;5043162;28;20084;-63
2022/05/02 09:36:53;;;;;;;7.40;4.97;;;;;;;;;;5043102;28;20056;-64
2022/05/02 09:39:27;;;;;;;5.28;4.68;;;;;;;;;;5042717;28;20064;-64
2022/05/02 09:41:53;;;;;;;9.63;5.97;;;;;;;;;;5043205;28;20432;-63
2022/05/02 09:50:14;;;;;;;9.57;5.00;;;;;;;;;;5042888;28;20049;-63
2022/05/02 09:52:52;;;;;;;7.45;5.35;;;;;;;;;;5042929;28;20080;-63
2022/05/02 09:58:07;;;;;;;8.45;5.60;;;;;;;;;;5042904;28;20559;-63
2022/05/02 10:01:10;;;;;;;7.07;5.28;;;;;;;;;;5042670;28;20124;-61
2022/05/02 10:03:55;;;;;;;8.15;5.13;;;;;;;;;;5040042;28;20053;-64
2022/05/02 10:06:30;;;;;;;9.05;5.43;;;;;;;;;;5033039;28;20048;-62
2022/05/02 10:09:02;;;;;;;10.18;5.47;;;;;;;;;;5055135;28;20114;-61
2022/05/02 10:11:53;;;;;;;8.98;5.10;;;;;;;;;;5084476;28;20036;-60
2022/05/02 10:14:19;;;;;;;5.45;4.45;;;;;;;;;;5081479;28;20052;-62
2022/05/02 10:17:03;;;;;;;8.32;4.80;;;;;;;;;;5084267;28;20103;-63
2022/05/02 10:19:35;;;;;;;7.78;4.63;;;;;;;;;;5085049;28;20128;-65
2022/05/02 10:22:20;;;;;;;5.93;4.45;;;;;;;;;;5084399;28;20052;-63
2022/05/02 10:24:55;;;;;;;8.75;5.07;;;;;;;;;;5083090;28;20071;-65
2022/05/02 10:27:40;;;;;;;5.97;4.45;;;;;;;;;;5084758;28;20100;-63
2022/05/02 10:30:11;;;;;;;6.78;4.80;;;;;;;;;;5084776;28;20045;-62
2022/05/02 10:32:44;;;;;;;8.23;4.10;;;;;;;;;;5082472;28;20055;-62
2022/05/02 10:35:14;;;;;;;5.70;4.53;;;;;;;;;;5084777;28;20044;-60
2022/05/02 10:37:42;;;;;;;5.47;4.18;;;;;;;;;;5083547;28;20059;-62
2022/05/02 10:40:13;;;;;;;6.53;4.53;;;;;;;;;;5084220;28;20055;-62
2022/05/02 10:42:43;;;;;;;7.20;4.15;;;;;;;;;;5084504;28;20065;-60
2022/05/02 10:45:11;;;;;;;6.68;3.80;;;;;;;;;;5084681;28;20048;-62
2022/05/02 10:47:44;;;;;;;7.40;4.35;;;;;;;;;;5083711;28;20056;-61
2022/05/02 10:50:18;;;;;;;7.10;4.10;;;;;;;;;;5084719;28;20100;-63
2022/05/02 10:52:49;;;;;;;7.57;4.22;;;;;;;;;;5083955;28;20106;-62
2022/05/02 10:55:25;;;;;;;6.65;3.95;;;;;;;;;;5083954;28;20043;-63
2022/05/02 10:57:53;;;;;;;5.55;3.90;;;;;;;;;;5084180;28;20067;-62
2022/05/02 11:00:19;;;;;;;8.88;4.38;;;;;;;;;;5084243;28;20044;-62
2022/05/02 11:02:46;;;;;;;6.13;3.83;;;;;;;;;;5082564;28;20059;-61
2022/05/02 11:05:16;;;;;;;5.55;4.50;;;;;;;;;;5083402;28;20068;-62
2022/05/02 11:07:42;;;;;;;6.95;4.63;;;;;;;;;;5084059;28;20044;-61
2022/05/02 11:10:09;;;;;;;5.90;4.45;;;;;;;;;;5084537;28;20116;-61
2022/05/02 11:12:35;;;;;;;;;;;;;;;;;;5084842;28;20041;-62
2022/05/02 11:15:06;;;;;;;5.20;4.03;;;;;;;;;;5082246;28;19927;-61
2022/05/02 11:17:43;;;;;;;9.05;5.18;;;;;;;;;;5079203;28;20036;-62
2022/05/02 11:23:05;;;;;;;5.28;4.15;;;;;;;;;;5076826;28;20059;-62
2022/05/02 11:25:40;;;;;;;7.10;3.83;;;;;;;;;;5084120;28;20445;-64
2022/05/02 11:28:09;;;;;;;5.20;4.15;;;;;;;;;;5082676;28;20044;-63
2022/05/02 11:31:02;;;;;;;5.90;3.85;;;;;;;;;;5087294;28;21852;-62
2022/05/02 11:33:34;;;;;;;4.65;3.67;;;;;;;;;;5079703;28;20056;-62
2022/05/02 11:36:01;;;;;;;5.15;3.35;;;;;;;;;;5081410;28;20044;-63
2022/05/02 11:38:28;;;;;;;;;;;;;;;;;;5091159;28;20045;-63
2022/05/02 11:41:06;;;;;;;6.05;3.78;;;;;;;;;;5087422;28;20417;-63
2022/05/02 11:43:36;;;;;;;5.57;3.88;;;;;;;;;;5086044;28;20057;-62
2022/05/02 11:46:02;;;;;;;3.88;3.22;;;;;;;;;;5087994;28;20045;-63
2022/05/02 11:48:38;;;;;;;4.63;3.50;;;;;;;;;;5086252;28;20104;-61
2022/05/02 11:51:05;;;;;;;6.28;3.90;;;;;;;;;;5095159;28;20052;-61
2022/05/02 11:53:34;;;;;;;7.25;4.00;;;;;;;;;;5086749;28;20096;-61
2022/05/02 11:56:03;;;;;;;7.53;4.28;;;;;;;;;;5087255;28;20049;-61
2022/05/02 11:58:36;;;;;;;5.13;3.47;;;;;;;;;;5092845;28;20510;-62
2022/05/02 12:01:04;;;;;;;6.00;3.80;;;;;;;;;;5088594;28;20049;-67
2022/05/02 12:03:53;;;;;;;4.93;4.00;;;;;;;;;;5092308;28;20060;-62
2022/05/02 12:06:22;;;;;;;5.30;3.58;;;;;;;;;;5084021;28;20047;-62
2022/05/02 12:08:52;;;;;;;7.60;4.10;;;;;;;;;;5099286;28;20116;-60
2022/05/02 12:11:18;;;;;;;7.88;4.28;;;;;;;;;;5087026;28;20048;-60
2022/05/02 12:13:46;;;;;;;4.25;3.85;;;;;;;;;;5087035;28;20087;-59
2022/05/02 12:16:13;;;;;;;4.63;4.07;;;;;;;;;;5087271;28;20055;-68
2022/05/02 12:19:09;;;;;;;7.18;3.90;;;;;;;;;;5086790;28;20359;-67
2022/05/02 12:21:42;;;;;;;6.80;4.13;;;;;;;;;;5082146;28;20049;-66
2022/05/02 12:24:09;;;;;;;5.40;4.43;;;;;;;;;;5079624;28;20051;-65
2022/05/02 12:26:43;;;;;;;5.47;4.10;;;;;;;;;;5093594;28;20051;-66
2022/05/02 12:29:14;;;;;;;7.13;4.38;;;;;;;;;;5073154;28;20100;-66
2022/05/02 12:31:43;;;;;;;7.53;4.22;;;;;;;;;;5080874;28;20113;-66
2022/05/02 12:34:10;;;;;;;6.63;4.68;;;;;;;;;;5085388;28;20079;-66
2022/05/02 12:36:37;;;;;;;;;;;;;;;;;;5087332;28;20043;-66
2022/05/02 12:39:04;;;;;;;7.80;3.95;;;;;;;;;;5073850;28;19921;-65
2022/05/02 12:41:40;;;;;;;6.57;4.30;;;;;;;;;;5095932;28;20040;-64
2022/05/02 12:44:10;;;;;;;5.22;4.68;;;;;;;;;;5081518;28;20045;-65
2022/05/02 12:46:39;;;;;;;5.53;3.95;;;;;;;;;;5085846;28;20049;-65
2022/05/02 12:49:05;;;;;;;7.57;4.60;;;;;;;;;;5086784;28;20076;-64
2022/05/02 12:51:32;;;;;;;6.13;4.50;;;;;;;;;;5086526;28;20072;-65
2022/05/02 12:54:12;;;;;;;5.50;4.28;;;;;;;;;;5088758;28;20399;-63
2022/05/02 13:02:35;;;;;;;7.88;4.57;;;;;;;;;;5083930;28;20079;-62
2022/05/02 13:05:05;;;;;;;4.95;4.03;;;;;;;;;;5085393;28;20068;-62
2022/05/02 13:07:37;;;;;;;5.90;4.35;;;;;;;;;;5086317;28;20072;-63
2022/05/02 13:10:04;;;;;;;6.50;4.50;;;;;;;;;;5083750;28;20174;-62
2022/05/02 13:12:30;;;;;;;5.63;4.78;;;;;;;;;;5084873;28;20090;-62
2022/05/02 13:15:00;;;;;;;5.43;4.30;;;;;;;;;;5085873;28;20041;-62
2022/05/02 13:17:26;;;;;;;7.05;4.93;;;;;;;;;;5084075;28;20044;-62
2022/05/02 13:19:53;;;;;;;6.65;4.13;;;;;;;;;;5084246;28;20063;-62
2022/05/02 13:22:20;;;;;;;;;;;;;;;;;;5085392;28;20052;-62
2022/05/02 13:24:53;;;;;;;4.45;4.05;;;;;;;;;;5085963;28;20407;-62
2022/05/02 13:27:35;;;;;;;6.40;3.88;;;;;;;;;;5085870;28;20036;-62
2022/05/02 13:30:05;;;;;;;5.60;3.85;;;;;;;;;;5084772;28;20049;-62
2022/05/02 13:32:31;;;;;;;5.68;3.97;;;;;;;;;;5085701;28;20051;-62
2022/05/02 13:35:03;;;;;;;6.45;4.53;;;;;;;;;;5085782;28;20078;-62
2022/05/02 13:37:44;;;;;;;5.43;4.50;;;;;;;;;;5084987;28;20070;-62
2022/05/02 13:40:14;;;;;;;6.45;4.05;;;;;;;;;;5065773;28;20102;-62
2022/05/02 13:42:41;;;;;;;4.90;4.13;;;;;;;;;;5065480;28;20048;-62
2022/05/02 13:45:22;;;;;;;5.57;4.33;;;;;;;;;;5065680;28;20070;-61
2022/05/02 13:47:53;;;;;;;7.60;4.30;;;;;;;;;;5065396;28;20051;-61
2022/05/02 13:50:21;;;;;;;6.90;3.60;;;;;;;;;;5065444;28;20045;-61
2022/05/02 13:52:47;;;;;;;6.80;4.15;;;;;;;;;;5097813;28;20049;-62
2022/05/02 13:55:20;;;;;;;5.50;3.80;;;;;;;;;;5065158;28;20037;-61
2022/05/02 13:57:53;;;;;;;7.32;3.88;;;;;;;;;;5065014;28;20053;-61
2022/05/02 14:03:32;;;;;;;4.30;3.47;;;;;;;;;;5064817;28;20124;-62
2022/05/02 14:06:01;;;;;;;6.47;3.70;;;;;;;;;;5065346;28;20049;-62
2022/05/02 14:08:29;;;;;;;4.70;3.80;;;;;;;;;;5064976;28;20095;-62
2022/05/02 14:10:57;;;;;;;4.22;3.80;;;;;;;;;;5065156;28;20053;-61
2022/05/02 14:13:24;;;;;;;3.47;3.10;;;;;;;;;;5063913;28;20041;-62
2022/05/02 14:15:50;;;;;;;4.72;3.08;;;;;;;;;;5065323;28;20082;-62
2022/05/02 14:18:22;;;;;;;4.50;3.30;;;;;;;;;;5064921;28;20044;-63
2022/05/02 14:20:59;;;;;;;4.10;3.20;;;;;;;;;;5065016;28;20071;-62
2022/05/02 14:23:25;;;;;;;7.13;3.60;;;;;;;;;;5064461;28;20053;-62
2022/05/02 14:25:52;;;;;;;6.65;3.72;;;;;;;;;;5064865;28;20531;-62
2022/05/02 14:28:18;;;;;;;;;;;;;;;;;;5065305;28;20057;-61
2022/05/02 14:30:46;;;;;;;3.80;3.40;;;;;;;;;;5064472;28;19967;-61
2022/05/02 14:33:13;;;;;;;5.53;3.58;;;;;;;;;;5064315;28;20071;-62
2022/05/02 14:35:40;;;;;;;4.38;3.25;;;;;;;;;;5064836;28;20044;-62
2022/05/02 14:38:07;;;;;;;;;;;;;;;;;;5065293;28;20045;-62
2022/05/02 14:40:34;;;;;;;4.57;3.08;;;;;;;;;;5064741;28;19921;-62
2022/05/02 14:43:00;;;;;;;4.28;2.70;;;;;;;;;;5064624;28;20057;-62
2022/05/02 14:45:27;;;;;;;7.97;3.45;;;;;;;;;;5064869;28;20096;-62
2022/05/02 14:47:53;;;;;;;4.85;3.15;;;;;;;;;;5064420;28;20049;-61
2022/05/02 14:50:20;;;;;;;5.93;3.38;;;;;;;;;;5064272;28;20049;-62
2022/05/02 14:52:47;;;;;;;4.32;2.60;;;;;;;;;;5064631;28;20097;-61
2022/05/02 14:55:14;;;;;;;3.67;3.17;;;;;;;;;;5064336;28;20497;-61
2022/05/02 14:57:43;;;;;;;3.95;2.70;;;;;;;;;;5063341;28;20048;-62
2022/05/02 15:00:12;;;;;;;3.38;3.03;;;;;;;;;;5064685;28;20104;-62
2022/05/02 15:02:39;;;;;;;6.13;2.83;;;;;;;;;;5064233;28;20056;-62
2022/05/02 15:05:07;;;;;;;4.18;2.95;;;;;;;;;;5064031;28;20072;-62
2022/05/02 15:07:42;;;;;;;5.38;3.00;;;;;;;;;;5064339;28;20053;-61
2022/05/02 15:10:29;;;;;;;3.67;2.72;;;;;;;;;;5065851;28;20230;-61
2022/05/02 15:13:22;;;;;;;3.15;2.35;;;;;;;;;;5068060;28;20040;-61
2022/05/02 15:15:50;;;;;;;3.35;2.30;;;;;;;;;;5068443;28;20096;-62
2022/05/02 15:18:35;;;;;;;4.53;2.63;;;;;;;;;;5068291;28;20056;-62
2022/05/02 15:21:04;;;;;;;3.58;2.60;;;;;;;;;;5067094;28;20045;-62
2022/05/02 15:23:30;;;;;;;3.55;2.88;;;;;;;;;;5068098;28;20049;-62
2022/05/02 15:25:56;;;;;;;3.80;2.35;;;;;;;;;;5068317;28;20080;-62
2022/05/02 15:36:55;;;;;;;3.85;1.88;;;;;;;;;;5067885;28;20049;-61